Bradford Regional Airport
KBFD : now visible

Airfield :











YOU CAN JOIN US ON...

 
LOGIN :

Register | Disclaimer

   EN    FR    IT 

 









Legend :    VFR   Marginal VFR   IFR   Intensive IFR   Very Intensive IFR
Visi :
Ceiling :
>= 8 km
>= 3000ft
5 to 8 km
1000 to 3000 ft
1500m to 5 km
500 to 1000 ft
800 to 1500m
200 to 500 ft
< 800m
< 200 ft
Symbols :   Thunderstorms  Fog  Heavy snow  Heavy precipitations  Wind > 20 kt






- Airport Elevation : 2143 ft
- IATA code : BFD


KBFD - Bradford Regional

CURRENT METAR :
  • 202204Z AUTO 31008KT 10SM SCT037 BKN049 BKN065 23/16 A2981 RMK AO2 LTG DSNT E T02280161

EXPIRED METARs :
  • 202153Z AUTO 32009KT 10SM VCTS FEW039 SCT049 BKN060 23/16 A2981 RMK AO2 SLP081 T02280161
  • 202123Z AUTO 00000KT 10SM VCTS BKN038 26/18 A2980 RMK AO2 LTG DSNT W AND NW T02610178
  • 202053Z AUTO 22004KT 10SM FEW036 SCT100 27/18 A2980 RMK AO2 LTG DSNT N AND NE SLP075 T02670178 55009
  • 201953Z AUTO VRB05KT 10SM FEW034 26/18 A2980 RMK AO2 SLP076 T02610183

TAF KBFD
Valid from the 20 at 22:00 until the 21 at 18:00 UTC


202134Z 2022/2118 22008KT P6SM -TSRA BKN050CB
FM202230 17004KT P6SM VCTS BKN035CB
FM210400 17003KT 5SM BR VCSH OVC035
FM210700 20005KT 4SM BR BKN015 OVC030
FM211330 23012G20KT P6SM -SHRA BKN050
KZOB FIR / North America



MET'MAP, your aeronautical weather chart ! - Copyright ORBIFLY December 2007 - Disclaimer

ORBIFLY MET'MAP TEAM :

Programming & Development : Alexandra Zaïnal
Concept & original design : Baudouin d'Aumeries
Assistance for programming : Marc-Olivier Méhu
Technical & hardware support : Manuel Goepfert

Contact : metmap@orbifly.com




SOURCES & CREDITS :

   NOAA       Earth
Advisory